createdAt,value
2019-02-20T00:02:40.121Z,25.90
2019-02-20T00:07:43.375Z,23.03
2019-02-20T00:12:47.302Z,32.70
2019-02-20T00:17:50.716Z,37.50
2019-02-20T00:22:54.031Z,25.13
2019-02-20T00:27:56.956Z,33.13
2019-02-20T00:32:59.832Z,32.03
2019-02-20T00:38:03.356Z,31.47
2019-02-20T00:43:06.613Z,29.97
2019-02-20T00:48:35.685Z,28.57
2019-02-20T00:53:44.218Z,22.57
2019-02-20T00:58:49.671Z,30.50
2019-02-20T01:03:52.825Z,34.37
2019-02-20T01:08:55.685Z,43.13
2019-02-20T01:13:58.539Z,38.23
2019-02-20T01:19:01.799Z,36.53
2019-02-20T01:24:04.975Z,53.70
2019-02-20T01:29:08.149Z,50.60
2019-02-20T01:34:11.599Z,44.00
2019-02-20T01:39:14.437Z,37.57
2019-02-20T01:44:17.440Z,37.37
2019-02-20T01:49:20.033Z,59.43
2019-02-20T01:54:23.280Z,50.30
2019-02-20T01:59:26.468Z,44.23
2019-02-20T02:04:29.614Z,44.17
2019-02-20T02:09:32.464Z,50.40
2019-02-20T02:14:35.650Z,54.63
2019-02-20T02:19:38.848Z,49.00
2019-02-20T02:24:42.015Z,45.67
2019-02-20T02:29:45.521Z,59.70
2019-02-20T02:34:49.044Z,50.07
2019-02-20T02:39:52.510Z,44.27
2019-02-20T02:44:55.411Z,52.03
2019-02-20T02:49:58.463Z,40.03
2019-02-20T02:55:01.971Z,56.10
2019-02-20T03:00:06.298Z,33.50
2019-02-20T03:05:09.507Z,33.23
2019-02-20T03:10:12.698Z,40.97
2019-02-20T03:15:16.209Z,51.70
2019-02-20T03:20:18.758Z,40.80
2019-02-20T03:25:22.139Z,46.43
2019-02-20T03:30:25.643Z,44.50
2019-02-20T03:35:29.160Z,43.43
2019-02-20T03:40:32.367Z,46.57
2019-02-20T03:45:35.093Z,45.13
2019-02-20T03:50:37.944Z,43.20
2019-02-20T03:55:40.807Z,49.77
2019-02-20T04:00:43.728Z,51.93
2019-02-20T04:05:47.364Z,48.30
2019-02-20T04:10:50.819Z,67.17
2019-02-20T04:15:53.796Z,45.53
2019-02-20T04:20:56.947Z,63.43
2019-02-20T04:26:00.570Z,55.07
2019-02-20T04:31:03.448Z,55.43
2019-02-20T04:36:06.979Z,47.57
2019-02-20T04:41:09.785Z,51.63
2019-02-20T04:46:12.845Z,44.80
2019-02-20T04:51:15.866Z,69.43
2019-02-20T04:56:19.373Z,54.73
2019-02-20T05:01:22.521Z,42.63
2019-02-20T05:06:25.954Z,56.97
2019-02-20T05:11:28.840Z,53.53
2019-02-20T05:16:32.777Z,40.03
2019-02-20T05:21:36.266Z,46.20
2019-02-20T05:26:39.266Z,43.70
2019-02-20T05:31:42.321Z,44.20
2019-02-20T05:36:46.639Z,48.73
2019-02-20T05:41:49.672Z,54.83
2019-02-20T05:46:52.840Z,48.83
2019-02-20T05:51:56.050Z,40.07
2019-02-20T05:56:59.554Z,50.90
2019-02-20T06:02:03.074Z,42.83
2019-02-20T06:07:05.950Z,44.27
2019-02-20T06:12:09.644Z,51.00
2019-02-20T06:17:12.711Z,51.27
2019-02-20T06:22:15.731Z,60.27
2019-02-20T06:27:18.953Z,52.80
2019-02-20T06:32:24.104Z,63.10
2019-02-20T06:37:27.111Z,96.37
2019-02-20T06:42:30.383Z,62.30
2019-02-20T06:47:33.620Z,62.43
2019-02-20T06:52:37.178Z,80.17
2019-02-20T06:57:40.320Z,63.40
2019-02-20T07:02:43.507Z,49.63
2019-02-20T07:08:33.466Z,59.43
2019-02-20T07:14:01.049Z,60.83
2019-02-20T07:19:26.211Z,53.90
2019-02-20T07:25:10.982Z,54.67
2019-02-20T07:30:13.965Z,71.97
2019-02-20T07:35:16.484Z,57.10
2019-02-20T07:40:19.405Z,60.37
2019-02-20T07:45:22.839Z,58.00
2019-02-20T07:50:25.782Z,64.30
2019-02-20T07:55:28.269Z,59.17
2019-02-20T08:00:31.233Z,51.03
2019-02-20T08:05:34.492Z,60.87
2019-02-20T08:10:37.688Z,51.87
2019-02-20T08:15:40.999Z,55.87
2019-02-20T08:20:43.881Z,44.10
2019-02-20T08:25:46.399Z,72.37
2019-02-20T08:30:49.892Z,47.23
2019-02-20T08:35:53.485Z,48.33
2019-02-20T08:40:56.038Z,37.57
2019-02-20T08:45:59.560Z,51.77
2019-02-20T08:51:02.940Z,43.90
2019-02-20T08:56:06.623Z,53.60
2019-02-20T09:01:10.097Z,57.37
2019-02-20T09:06:13.612Z,63.07
2019-02-20T09:11:17.129Z,53.40
2019-02-20T09:16:20.186Z,60.27
2019-02-20T09:21:23.635Z,55.60
2019-02-20T09:26:26.918Z,56.57
2019-02-20T09:31:30.520Z,45.13
2019-02-20T09:36:34.102Z,56.73
2019-02-20T09:41:37.327Z,51.17
2019-02-20T09:46:40.841Z,46.60
2019-02-20T09:51:44.086Z,48.07
2019-02-20T09:56:47.572Z,33.57
2019-02-20T10:01:50.702Z,49.43
2019-02-20T10:06:53.977Z,49.53
2019-02-20T10:11:57.402Z,49.57
2019-02-20T10:17:00.912Z,55.50
2019-02-20T10:22:04.138Z,46.83
2019-02-20T10:27:07.028Z,51.93
2019-02-20T10:32:09.922Z,51.10
2019-02-20T10:37:12.784Z,48.33
2019-02-20T10:42:17.484Z,46.43
2019-02-20T10:47:20.074Z,48.00
2019-02-20T10:52:23.602Z,45.60
2019-02-20T10:57:26.796Z,56.10
2019-02-20T11:02:30.092Z,53.73
2019-02-20T11:07:33.097Z,56.80
2019-02-20T11:12:36.635Z,57.57
2019-02-20T11:17:39.851Z,57.20
2019-02-20T11:22:43.353Z,52.80
2019-02-20T11:27:46.926Z,55.33
2019-02-20T11:32:49.778Z,59.67
2019-02-20T11:37:53.179Z,57.13
2019-02-20T11:42:56.419Z,59.00
2019-02-20T11:48:00.028Z,50.73
2019-02-20T11:53:03.568Z,61.57
2019-02-20T11:58:06.742Z,61.80
2019-02-20T12:03:10.014Z,50.40
2019-02-20T12:08:13.955Z,57.70
2019-02-20T12:13:17.126Z,58.60
2019-02-20T12:18:20.301Z,53.60
2019-02-20T12:23:24.844Z,53.00
2019-02-20T12:28:27.806Z,50.83
2019-02-20T12:33:30.815Z,59.77
2019-02-20T12:38:33.761Z,73.20
2019-02-20T12:43:37.005Z,59.30
2019-02-20T12:48:40.241Z,69.63
2019-02-20T12:53:43.777Z,48.10
2019-02-20T12:58:47.258Z,60.83
2019-02-20T13:03:50.811Z,59.90
2019-02-20T13:08:54.025Z,65.43
2019-02-20T13:13:57.246Z,68.23
2019-02-20T13:19:00.441Z,55.83
2019-02-20T13:24:03.993Z,59.50
2019-02-20T13:29:06.895Z,72.53
2019-02-20T13:34:10.074Z,69.80
2019-02-20T13:39:13.423Z,61.70
2019-02-20T13:44:16.643Z,64.10
2019-02-20T13:49:19.834Z,64.43
2019-02-20T13:54:22.831Z,70.93
2019-02-20T13:59:26.348Z,74.07
2019-02-20T14:04:29.558Z,62.87
2019-02-20T14:09:32.766Z,52.23
2019-02-20T14:14:36.033Z,74.50
2019-02-20T14:19:39.700Z,52.73
2019-02-20T14:24:44.384Z,53.10
2019-02-20T14:29:47.656Z,48.00
2019-02-20T14:34:50.166Z,52.33
2019-02-20T14:39:53.678Z,56.97
2019-02-20T14:44:57.901Z,37.80
2019-02-20T14:50:01.810Z,49.93
2019-02-20T14:55:05.561Z,41.07
2019-02-20T15:00:09.627Z,45.13
2019-02-20T15:05:13.101Z,50.47
2019-02-20T15:10:16.432Z,64.20
2019-02-20T15:15:19.978Z,46.33
2019-02-20T15:20:23.260Z,50.93
2019-02-20T15:25:26.252Z,58.77
2019-02-20T15:30:29.149Z,51.50
2019-02-20T15:35:33.349Z,46.73
2019-02-20T15:40:36.284Z,44.60
2019-02-20T15:45:39.483Z,50.90
2019-02-20T15:50:42.819Z,54.20
2019-02-20T15:55:46.230Z,55.73
2019-02-20T16:00:49.148Z,59.03
2019-02-20T16:05:52.541Z,43.73
2019-02-20T16:10:56.815Z,43.53
2019-02-20T16:15:59.824Z,45.00
2019-02-20T16:21:03.054Z,51.10
2019-02-20T16:26:06.405Z,61.13
2019-02-20T16:31:09.983Z,47.27
2019-02-20T16:36:13.540Z,60.40
2019-02-20T16:41:17.041Z,53.23
2019-02-20T16:46:20.304Z,52.27
2019-02-20T16:51:23.742Z,50.17
2019-02-20T16:56:26.939Z,48.00
2019-02-20T17:01:30.242Z,54.87
2019-02-20T17:06:33.995Z,53.30
2019-02-20T17:11:36.936Z,52.23
2019-02-20T17:16:40.267Z,42.50
2019-02-20T17:21:43.219Z,50.67
2019-02-20T17:26:46.508Z,44.83
2019-02-20T17:31:49.966Z,49.97
2019-02-20T17:36:53.318Z,41.93
2019-02-20T17:41:56.598Z,50.40
2019-02-20T17:47:00.290Z,36.97
2019-02-20T17:52:02.926Z,46.20
2019-02-20T17:57:06.215Z,42.63
2019-02-20T18:02:09.864Z,60.33
2019-02-20T18:07:13.118Z,39.00
2019-02-20T18:12:16.698Z,46.70
2019-02-20T18:17:19.959Z,53.40
2019-02-20T18:22:25.878Z,52.30
2019-02-20T18:27:29.190Z,51.10
2019-02-20T18:32:32.791Z,54.87
2019-02-20T18:37:36.009Z,43.33
2019-02-20T18:42:38.973Z,50.33
2019-02-20T18:47:42.586Z,46.63
2019-02-20T18:52:46.377Z,43.07
2019-02-20T18:57:49.879Z,44.30
2019-02-20T19:02:53.970Z,48.83
2019-02-20T19:07:58.782Z,29.97
2019-02-20T19:13:53.505Z,37.70
2019-02-20T19:19:45.290Z,45.47
2019-02-20T19:25:29.162Z,36.70
2019-02-20T19:31:23.288Z,32.13
2019-02-20T19:36:55.579Z,33.57
2019-02-20T19:42:44.397Z,31.07
2019-02-20T19:48:12.728Z,31.50
2019-02-20T19:53:30.489Z,38.37
2019-02-20T19:59:04.021Z,28.20
2019-02-20T20:05:07.080Z,27.03
2019-02-20T20:11:00.307Z,34.87
2019-02-20T20:16:43.353Z,24.17
2019-02-20T20:22:28.891Z,32.13
2019-02-20T20:28:14.946Z,31.40
2019-02-20T20:34:02.112Z,24.13
2019-02-20T20:39:51.201Z,25.30
2019-02-20T20:45:31.874Z,27.40
2019-02-20T20:51:11.692Z,34.37
2019-02-20T20:56:36.144Z,26.90
2019-02-20T21:02:08.524Z,25.00
2019-02-20T21:08:01.559Z,25.20
2019-02-20T21:13:59.234Z,27.03
2019-02-20T21:19:48.113Z,24.90
2019-02-20T21:25:46.481Z,26.00
2019-02-20T21:31:37.092Z,22.87
2019-02-20T21:36:55.033Z,23.93
2019-02-20T21:43:04.908Z,24.77
2019-02-20T21:48:37.208Z,25.47
2019-02-20T21:54:16.423Z,25.10
2019-02-20T22:00:01.010Z,27.60
2019-02-20T22:05:36.017Z,23.63
2019-02-20T22:11:14.602Z,25.80
2019-02-20T22:17:26.531Z,34.27
2019-02-20T22:23:10.576Z,21.77
2019-02-20T22:28:37.897Z,26.43
2019-02-20T22:34:00.021Z,23.90
2019-02-20T22:39:11.356Z,28.17
2019-02-20T22:45:05.221Z,23.93
2019-02-20T22:50:44.929Z,25.27
2019-02-20T22:56:35.699Z,26.43
2019-02-20T23:01:52.224Z,23.60
2019-02-20T23:07:25.075Z,33.30
2019-02-20T23:13:03.246Z,31.00
2019-02-20T23:18:06.786Z,25.40
2019-02-20T23:23:09.986Z,22.83
2019-02-20T23:28:13.197Z,23.03
2019-02-20T23:33:16.216Z,27.30
2019-02-20T23:38:19.448Z,20.83
2019-02-20T23:43:22.810Z,22.93
2019-02-20T23:48:26.116Z,21.43
2019-02-20T23:53:29.365Z,22.00
2019-02-20T23:58:32.654Z,20.83
